sensor_id;sensor_type;location;lat;lon;timestamp;P1;durP1;ratioP1;P2;durP2;ratioP2
20639;SDS011;10479;53.524;9.846;2023-06-10T00:01:45;13.00;;;4.90;;
20639;SDS011;10479;53.524;9.846;2023-06-10T00:04:12;14.45;;;4.57;;
20639;SDS011;10479;53.524;9.846;2023-06-10T00:06:44;14.88;;;4.60;;
20639;SDS011;10479;53.524;9.846;2023-06-10T00:09:10;13.30;;;4.50;;
20639;SDS011;10479;53.524;9.846;2023-06-10T00:11:36;15.80;;;4.85;;
20639;SDS011;10479;53.524;9.846;2023-06-10T00:14:02;12.50;;;3.88;;
20639;SDS011;10479;53.524;9.846;2023-06-10T00:16:28;11.07;;;4.20;;
20639;SDS011;10479;53.524;9.846;2023-06-10T00:18:53;14.80;;;4.82;;
20639;SDS011;10479;53.524;9.846;2023-06-10T00:21:29;14.93;;;4.97;;
20639;SDS011;10479;53.524;9.846;2023-06-10T00:24:02;13.43;;;4.55;;
20639;SDS011;10479;53.524;9.846;2023-06-10T00:26:30;15.38;;;4.88;;
20639;SDS011;10479;53.524;9.846;2023-06-10T00:28:57;11.02;;;4.65;;
20639;SDS011;10479;53.524;9.846;2023-06-10T00:31:22;12.45;;;4.30;;
20639;SDS011;10479;53.524;9.846;2023-06-10T00:33:48;18.67;;;5.00;;
20639;SDS011;10479;53.524;9.846;2023-06-10T00:36:14;12.48;;;3.85;;
20639;SDS011;10479;53.524;9.846;2023-06-10T00:38:39;11.50;;;5.82;;
20639;SDS011;10479;53.524;9.846;2023-06-10T00:41:07;12.32;;;4.32;;
20639;SDS011;10479;53.524;9.846;2023-06-10T00:43:33;11.90;;;4.32;;
20639;SDS011;10479;53.524;9.846;2023-06-10T00:45:58;13.30;;;4.53;;
20639;SDS011;10479;53.524;9.846;2023-06-10T00:48:24;13.52;;;4.90;;
20639;SDS011;10479;53.524;9.846;2023-06-10T00:50:50;17.05;;;4.60;;
20639;SDS011;10479;53.524;9.846;2023-06-10T00:53:16;15.15;;;4.55;;
20639;SDS011;10479;53.524;9.846;2023-06-10T00:55:42;11.98;;;3.92;;
20639;SDS011;10479;53.524;9.846;2023-06-10T00:58:07;17.52;;;4.05;;
20639;SDS011;10479;53.524;9.846;2023-06-10T01:00:33;10.65;;;3.83;;
20639;SDS011;10479;53.524;9.846;2023-06-10T01:02:58;11.82;;;3.58;;
20639;SDS011;10479;53.524;9.846;2023-06-10T01:05:24;12.18;;;3.75;;
20639;SDS011;10479;53.524;9.846;2023-06-10T01:13:20;14.70;;;4.38;;
20639;SDS011;10479;53.524;9.846;2023-06-10T01:15:49;12.57;;;3.55;;
20639;SDS011;10479;53.524;9.846;2023-06-10T01:18:15;14.23;;;3.53;;
20639;SDS011;10479;53.524;9.846;2023-06-10T01:20:42;13.23;;;4.28;;
20639;SDS011;10479;53.524;9.846;2023-06-10T01:23:08;14.38;;;3.47;;
20639;SDS011;10479;53.524;9.846;2023-06-10T01:25:38;9.55;;;4.13;;
20639;SDS011;10479;53.524;9.846;2023-06-10T01:28:49;15.18;;;3.22;;
20639;SDS011;10479;53.524;9.846;2023-06-10T01:34:14;11.13;;;3.17;;
20639;SDS011;10479;53.524;9.846;2023-06-10T01:36:44;12.75;;;3.03;;
20639;SDS011;10479;53.524;9.846;2023-06-10T01:39:12;9.35;;;3.30;;
20639;SDS011;10479;53.524;9.846;2023-06-10T01:41:38;11.68;;;3.17;;
20639;SDS011;10479;53.524;9.846;2023-06-10T01:44:04;8.93;;;3.25;;
20639;SDS011;10479;53.524;9.846;2023-06-10T01:46:29;15.60;;;3.17;;
20639;SDS011;10479;53.524;9.846;2023-06-10T01:48:55;9.80;;;3.25;;
20639;SDS011;10479;53.524;9.846;2023-06-10T01:51:21;12.93;;;3.30;;
20639;SDS011;10479;53.524;9.846;2023-06-10T01:53:46;13.32;;;3.15;;
20639;SDS011;10479;53.524;9.846;2023-06-10T01:56:12;11.07;;;3.25;;
20639;SDS011;10479;53.524;9.846;2023-06-10T01:58:44;8.25;;;2.70;;
20639;SDS011;10479;53.524;9.846;2023-06-10T02:01:10;11.52;;;3.70;;
20639;SDS011;10479;53.524;9.846;2023-06-10T02:03:35;8.50;;;2.80;;
20639;SDS011;10479;53.524;9.846;2023-06-10T02:06:01;10.10;;;3.10;;
20639;SDS011;10479;53.524;9.846;2023-06-10T02:08:26;9.55;;;2.83;;
20639;SDS011;10479;53.524;9.846;2023-06-10T02:10:52;9.25;;;2.65;;
20639;SDS011;10479;53.524;9.846;2023-06-10T02:13:18;14.18;;;2.95;;
20639;SDS011;10479;53.524;9.846;2023-06-10T02:15:44;10.25;;;3.00;;
20639;SDS011;10479;53.524;9.846;2023-06-10T02:18:09;7.07;;;2.55;;
20639;SDS011;10479;53.524;9.846;2023-06-10T02:20:37;9.00;;;2.60;;
20639;SDS011;10479;53.524;9.846;2023-06-10T02:23:02;16.55;;;3.08;;
20639;SDS011;10479;53.524;9.846;2023-06-10T02:25:28;10.23;;;2.80;;
20639;SDS011;10479;53.524;9.846;2023-06-10T02:27:54;11.38;;;3.63;;
20639;SDS011;10479;53.524;9.846;2023-06-10T02:30:19;12.38;;;4.20;;
20639;SDS011;10479;53.524;9.846;2023-06-10T02:32:44;12.48;;;3.72;;
20639;SDS011;10479;53.524;9.846;2023-06-10T02:35:15;11.73;;;4.00;;
20639;SDS011;10479;53.524;9.846;2023-06-10T02:37:42;11.77;;;3.33;;
20639;SDS011;10479;53.524;9.846;2023-06-10T02:40:08;11.48;;;3.20;;
20639;SDS011;10479;53.524;9.846;2023-06-10T02:42:34;8.45;;;2.70;;
20639;SDS011;10479;53.524;9.846;2023-06-10T02:45:00;7.00;;;2.30;;
20639;SDS011;10479;53.524;9.846;2023-06-10T02:47:26;9.25;;;2.40;;
20639;SDS011;10479;53.524;9.846;2023-06-10T02:49:51;15.27;;;2.72;;
20639;SDS011;10479;53.524;9.846;2023-06-10T02:52:18;10.05;;;2.60;;
20639;SDS011;10479;53.524;9.846;2023-06-10T02:54:43;10.65;;;2.50;;
20639;SDS011;10479;53.524;9.846;2023-06-10T02:57:10;9.90;;;2.35;;
20639;SDS011;10479;53.524;9.846;2023-06-10T02:59:35;10.02;;;2.42;;
20639;SDS011;10479;53.524;9.846;2023-06-10T03:02:01;11.02;;;2.55;;
20639;SDS011;10479;53.524;9.846;2023-06-10T03:04:26;8.80;;;2.45;;
20639;SDS011;10479;53.524;9.846;2023-06-10T03:06:54;8.50;;;2.70;;
20639;SDS011;10479;53.524;9.846;2023-06-10T03:09:20;10.80;;;2.30;;
20639;SDS011;10479;53.524;9.846;2023-06-10T03:11:45;14.35;;;2.50;;
20639;SDS011;10479;53.524;9.846;2023-06-10T03:14:11;10.50;;;2.70;;
20639;SDS011;10479;53.524;9.846;2023-06-10T03:16:36;7.00;;;2.20;;
20639;SDS011;10479;53.524;9.846;2023-06-10T03:19:06;10.10;;;2.55;;
20639;SDS011;10479;53.524;9.846;2023-06-10T03:21:32;11.95;;;2.28;;
20639;SDS011;10479;53.524;9.846;2023-06-10T03:23:58;8.68;;;2.28;;
20639;SDS011;10479;53.524;9.846;2023-06-10T03:26:23;10.48;;;2.00;;
20639;SDS011;10479;53.524;9.846;2023-06-10T03:28:49;8.90;;;2.40;;
20639;SDS011;10479;53.524;9.846;2023-06-10T03:31:14;10.27;;;2.67;;
20639;SDS011;10479;53.524;9.846;2023-06-10T03:33:42;11.00;;;2.45;;
20639;SDS011;10479;53.524;9.846;2023-06-10T03:36:07;8.80;;;2.22;;
20639;SDS011;10479;53.524;9.846;2023-06-10T03:38:33;13.38;;;2.30;;
20639;SDS011;10479;53.524;9.846;2023-06-10T03:40:58;8.18;;;2.30;;
20639;SDS011;10479;53.524;9.846;2023-06-10T03:43:23;10.45;;;2.60;;
20639;SDS011;10479;53.524;9.846;2023-06-10T03:45:49;7.90;;;2.13;;
20639;SDS011;10479;53.524;9.846;2023-06-10T03:48:14;9.43;;;2.53;;
20639;SDS011;10479;53.524;9.846;2023-06-10T03:50:40;5.85;;;2.00;;
20639;SDS011;10479;53.524;9.846;2023-06-10T03:53:05;7.70;;;1.90;;
20639;SDS011;10479;53.524;9.846;2023-06-10T03:55:31;9.27;;;2.00;;
20639;SDS011;10479;53.524;9.846;2023-06-10T03:57:56;10.40;;;2.28;;
20639;SDS011;10479;53.524;9.846;2023-06-10T04:00:22;8.85;;;2.08;;
20639;SDS011;10479;53.524;9.846;2023-06-10T04:02:47;11.18;;;2.63;;
20639;SDS011;10479;53.524;9.846;2023-06-10T04:05:17;7.68;;;2.03;;
20639;SDS011;10479;53.524;9.846;2023-06-10T04:07:46;10.05;;;2.15;;
20639;SDS011;10479;53.524;9.846;2023-06-10T04:10:13;10.85;;;1.98;;
20639;SDS011;10479;53.524;9.846;2023-06-10T04:12:39;6.72;;;2.00;;
20639;SDS011;10479;53.524;9.846;2023-06-10T04:15:05;6.95;;;2.17;;
20639;SDS011;10479;53.524;9.846;2023-06-10T04:17:32;10.50;;;1.90;;
20639;SDS011;10479;53.524;9.846;2023-06-10T04:19:57;11.10;;;2.17;;
20639;SDS011;10479;53.524;9.846;2023-06-10T04:22:25;13.63;;;2.58;;
20639;SDS011;10479;53.524;9.846;2023-06-10T04:24:51;7.50;;;2.20;;
20639;SDS011;10479;53.524;9.846;2023-06-10T04:27:17;10.40;;;2.80;;
20639;SDS011;10479;53.524;9.846;2023-06-10T04:29:42;7.10;;;1.92;;
20639;SDS011;10479;53.524;9.846;2023-06-10T04:32:07;8.85;;;2.00;;
20639;SDS011;10479;53.524;9.846;2023-06-10T04:34:33;9.30;;;1.85;;
20639;SDS011;10479;53.524;9.846;2023-06-10T04:36:59;7.75;;;1.92;;
20639;SDS011;10479;53.524;9.846;2023-06-10T04:39:25;6.75;;;2.10;;
20639;SDS011;10479;53.524;9.846;2023-06-10T04:41:51;7.40;;;1.80;;
20639;SDS011;10479;53.524;9.846;2023-06-10T04:44:16;8.38;;;2.17;;
20639;SDS011;10479;53.524;9.846;2023-06-10T04:46:42;7.15;;;2.20;;
20639;SDS011;10479;53.524;9.846;2023-06-10T04:49:07;10.18;;;2.50;;
20639;SDS011;10479;53.524;9.846;2023-06-10T04:51:33;10.90;;;2.47;;
20639;SDS011;10479;53.524;9.846;2023-06-10T04:53:59;8.38;;;1.98;;
20639;SDS011;10479;53.524;9.846;2023-06-10T04:56:28;8.00;;;1.98;;
20639;SDS011;10479;53.524;9.846;2023-06-10T04:58:55;9.98;;;2.08;;
20639;SDS011;10479;53.524;9.846;2023-06-10T05:01:21;8.73;;;2.28;;
20639;SDS011;10479;53.524;9.846;2023-06-10T05:03:47;10.73;;;2.17;;
20639;SDS011;10479;53.524;9.846;2023-06-10T05:06:12;17.02;;;2.42;;
20639;SDS011;10479;53.524;9.846;2023-06-10T05:08:38;7.22;;;2.13;;
20639;SDS011;10479;53.524;9.846;2023-06-10T05:11:03;8.40;;;1.83;;
20639;SDS011;10479;53.524;9.846;2023-06-10T05:13:29;7.63;;;1.77;;
20639;SDS011;10479;53.524;9.846;2023-06-10T05:15:54;10.40;;;2.25;;
20639;SDS011;10479;53.524;9.846;2023-06-10T05:18:20;10.00;;;2.25;;
20639;SDS011;10479;53.524;9.846;2023-06-10T05:20:46;9.73;;;1.90;;
20639;SDS011;10479;53.524;9.846;2023-06-10T05:23:11;10.50;;;2.45;;
20639;SDS011;10479;53.524;9.846;2023-06-10T05:25:37;9.70;;;1.60;;
20639;SDS011;10479;53.524;9.846;2023-06-10T05:28:02;10.18;;;2.20;;
20639;SDS011;10479;53.524;9.846;2023-06-10T05:30:28;11.45;;;2.15;;
20639;SDS011;10479;53.524;9.846;2023-06-10T05:32:53;13.30;;;2.53;;
20639;SDS011;10479;53.524;9.846;2023-06-10T05:35:20;9.48;;;2.13;;
20639;SDS011;10479;53.524;9.846;2023-06-10T05:37:46;10.80;;;2.60;;
20639;SDS011;10479;53.524;9.846;2023-06-10T05:40:11;5.70;;;2.00;;
20639;SDS011;10479;53.524;9.846;2023-06-10T05:42:37;8.82;;;2.03;;
20639;SDS011;10479;53.524;9.846;2023-06-10T05:45:02;8.75;;;2.08;;
20639;SDS011;10479;53.524;9.846;2023-06-10T05:47:28;7.95;;;2.00;;
20639;SDS011;10479;53.524;9.846;2023-06-10T05:49:53;7.82;;;2.20;;
20639;SDS011;10479;53.524;9.846;2023-06-10T05:52:19;10.45;;;2.03;;
20639;SDS011;10479;53.524;9.846;2023-06-10T05:54:44;11.98;;;2.13;;
20639;SDS011;10479;53.524;9.846;2023-06-10T05:57:10;7.60;;;1.80;;
20639;SDS011;10479;53.524;9.846;2023-06-10T05:59:36;13.98;;;2.20;;
20639;SDS011;10479;53.524;9.846;2023-06-10T06:02:01;10.98;;;1.75;;
20639;SDS011;10479;53.524;9.846;2023-06-10T06:04:27;9.45;;;2.03;;
20639;SDS011;10479;53.524;9.846;2023-06-10T06:06:53;5.40;;;1.70;;
20639;SDS011;10479;53.524;9.846;2023-06-10T06:09:18;12.50;;;2.25;;
20639;SDS011;10479;53.524;9.846;2023-06-10T06:11:43;9.85;;;2.40;;
20639;SDS011;10479;53.524;9.846;2023-06-10T06:14:09;11.80;;;2.22;;
20639;SDS011;10479;53.524;9.846;2023-06-10T06:16:34;9.18;;;2.28;;
20639;SDS011;10479;53.524;9.846;2023-06-10T06:19:00;12.73;;;2.05;;
20639;SDS011;10479;53.524;9.846;2023-06-10T06:21:25;9.00;;;1.90;;
20639;SDS011;10479;53.524;9.846;2023-06-10T06:23:51;10.52;;;1.95;;
20639;SDS011;10479;53.524;9.846;2023-06-10T06:26:16;9.52;;;2.00;;
20639;SDS011;10479;53.524;9.846;2023-06-10T06:28:42;7.88;;;2.13;;
20639;SDS011;10479;53.524;9.846;2023-06-10T06:31:07;20.40;;;2.75;;
20639;SDS011;10479;53.524;9.846;2023-06-10T06:33:33;10.38;;;2.13;;
20639;SDS011;10479;53.524;9.846;2023-06-10T06:35:58;7.60;;;1.98;;
20639;SDS011;10479;53.524;9.846;2023-06-10T06:38:25;8.23;;;1.98;;
20639;SDS011;10479;53.524;9.846;2023-06-10T06:40:51;11.15;;;2.65;;
20639;SDS011;10479;53.524;9.846;2023-06-10T06:43:17;11.02;;;2.30;;
20639;SDS011;10479;53.524;9.846;2023-06-10T06:45:46;8.25;;;2.05;;
20639;SDS011;10479;53.524;9.846;2023-06-10T06:48:29;9.02;;;2.05;;
20639;SDS011;10479;53.524;9.846;2023-06-10T06:50:54;8.30;;;2.03;;
20639;SDS011;10479;53.524;9.846;2023-06-10T06:53:21;7.28;;;1.70;;
20639;SDS011;10479;53.524;9.846;2023-06-10T06:55:46;10.40;;;1.90;;
20639;SDS011;10479;53.524;9.846;2023-06-10T06:58:12;11.30;;;2.00;;
20639;SDS011;10479;53.524;9.846;2023-06-10T07:00:37;8.40;;;2.50;;
20639;SDS011;10479;53.524;9.846;2023-06-10T07:03:03;10.15;;;2.25;;
20639;SDS011;10479;53.524;9.846;2023-06-10T07:05:31;11.27;;;2.38;;
20639;SDS011;10479;53.524;9.846;2023-06-10T07:07:57;14.55;;;2.40;;
20639;SDS011;10479;53.524;9.846;2023-06-10T07:10:23;9.73;;;2.30;;
20639;SDS011;10479;53.524;9.846;2023-06-10T07:12:50;9.25;;;2.42;;
20639;SDS011;10479;53.524;9.846;2023-06-10T07:15:17;8.75;;;2.10;;
20639;SDS011;10479;53.524;9.846;2023-06-10T07:17:45;10.15;;;2.30;;
20639;SDS011;10479;53.524;9.846;2023-06-10T07:20:11;16.05;;;2.63;;
20639;SDS011;10479;53.524;9.846;2023-06-10T07:22:41;9.65;;;2.30;;
20639;SDS011;10479;53.524;9.846;2023-06-10T07:25:08;8.10;;;2.22;;
20639;SDS011;10479;53.524;9.846;2023-06-10T07:27:37;8.30;;;2.20;;
20639;SDS011;10479;53.524;9.846;2023-06-10T07:30:05;10.68;;;2.63;;
20639;SDS011;10479;53.524;9.846;2023-06-10T07:32:33;10.13;;;2.60;;
20639;SDS011;10479;53.524;9.846;2023-06-10T07:35:02;10.55;;;2.45;;
20639;SDS011;10479;53.524;9.846;2023-06-10T07:37:29;10.18;;;2.20;;
20639;SDS011;10479;53.524;9.846;2023-06-10T07:39:54;10.88;;;2.38;;
20639;SDS011;10479;53.524;9.846;2023-06-10T07:42:21;11.65;;;2.60;;
20639;SDS011;10479;53.524;9.846;2023-06-10T07:44:47;7.75;;;2.63;;
20639;SDS011;10479;53.524;9.846;2023-06-10T07:47:13;12.15;;;2.58;;
20639;SDS011;10479;53.524;9.846;2023-06-10T07:49:39;11.27;;;2.75;;
20639;SDS011;10479;53.524;9.846;2023-06-10T07:52:07;7.95;;;2.25;;
20639;SDS011;10479;53.524;9.846;2023-06-10T07:54:34;11.00;;;2.38;;
20639;SDS011;10479;53.524;9.846;2023-06-10T07:57:01;19.90;;;2.95;;
20639;SDS011;10479;53.524;9.846;2023-06-10T08:02:25;10.40;;;2.28;;
20639;SDS011;10479;53.524;9.846;2023-06-10T08:04:51;13.82;;;2.67;;
20639;SDS011;10479;53.524;9.846;2023-06-10T08:07:18;8.52;;;2.22;;
20639;SDS011;10479;53.524;9.846;2023-06-10T08:09:44;9.05;;;2.15;;
20639;SDS011;10479;53.524;9.846;2023-06-10T08:12:10;6.57;;;2.17;;
20639;SDS011;10479;53.524;9.846;2023-06-10T08:14:37;9.10;;;2.58;;
20639;SDS011;10479;53.524;9.846;2023-06-10T08:17:05;7.38;;;2.72;;
20639;SDS011;10479;53.524;9.846;2023-06-10T08:19:31;11.80;;;2.70;;
20639;SDS011;10479;53.524;9.846;2023-06-10T08:21:57;8.60;;;2.42;;
20639;SDS011;10479;53.524;9.846;2023-06-10T08:24:26;10.90;;;2.25;;
20639;SDS011;10479;53.524;9.846;2023-06-10T08:26:52;7.82;;;2.78;;
20639;SDS011;10479;53.524;9.846;2023-06-10T08:29:23;8.60;;;2.65;;
20639;SDS011;10479;53.524;9.846;2023-06-10T08:31:49;14.20;;;2.20;;
20639;SDS011;10479;53.524;9.846;2023-06-10T08:34:14;8.57;;;2.90;;
20639;SDS011;10479;53.524;9.846;2023-06-10T08:36:41;9.98;;;3.00;;
20639;SDS011;10479;53.524;9.846;2023-06-10T08:39:08;12.48;;;2.92;;
20639;SDS011;10479;53.524;9.846;2023-06-10T08:41:35;6.25;;;2.30;;
20639;SDS011;10479;53.524;9.846;2023-06-10T08:46:37;9.80;;;2.72;;
20639;SDS011;10479;53.524;9.846;2023-06-10T08:49:05;10.70;;;2.83;;
20639;SDS011;10479;53.524;9.846;2023-06-10T08:51:33;11.80;;;3.00;;
20639;SDS011;10479;53.524;9.846;2023-06-10T08:54:01;12.23;;;3.17;;
20639;SDS011;10479;53.524;9.846;2023-06-10T08:56:29;9.30;;;2.55;;
20639;SDS011;10479;53.524;9.846;2023-06-10T08:58:58;9.02;;;2.38;;
20639;SDS011;10479;53.524;9.846;2023-06-10T09:01:25;10.20;;;2.60;;
20639;SDS011;10479;53.524;9.846;2023-06-10T09:03:52;10.68;;;2.70;;
20639;SDS011;10479;53.524;9.846;2023-06-10T09:06:19;10.90;;;2.65;;
20639;SDS011;10479;53.524;9.846;2023-06-10T09:08:45;8.80;;;2.67;;
20639;SDS011;10479;53.524;9.846;2023-06-10T09:11:10;8.25;;;2.63;;
20639;SDS011;10479;53.524;9.846;2023-06-10T09:13:36;11.30;;;2.92;;
20639;SDS011;10479;53.524;9.846;2023-06-10T09:16:01;8.68;;;2.60;;
20639;SDS011;10479;53.524;9.846;2023-06-10T09:18:30;10.70;;;2.72;;
20639;SDS011;10479;53.524;9.846;2023-06-10T09:20:58;7.78;;;2.53;;
20639;SDS011;10479;53.524;9.846;2023-06-10T09:23:24;10.93;;;2.83;;
20639;SDS011;10479;53.524;9.846;2023-06-10T09:25:55;8.10;;;2.65;;
20639;SDS011;10479;53.524;9.846;2023-06-10T09:28:24;7.65;;;2.80;;
20639;SDS011;10479;53.524;9.846;2023-06-10T09:30:55;13.82;;;3.55;;
20639;SDS011;10479;53.524;9.846;2023-06-10T09:33:31;4.80;;;2.40;;
20639;SDS011;10479;53.524;9.846;2023-06-10T09:35:57;11.38;;;2.95;;
20639;SDS011;10479;53.524;9.846;2023-06-10T09:38:31;8.57;;;3.03;;
20639;SDS011;10479;53.524;9.846;2023-06-10T09:40:59;10.23;;;2.95;;
20639;SDS011;10479;53.524;9.846;2023-06-10T09:43:38;8.75;;;3.00;;
20639;SDS011;10479;53.524;9.846;2023-06-10T09:46:13;11.70;;;2.75;;
20639;SDS011;10479;53.524;9.846;2023-06-10T09:48:43;7.97;;;2.78;;
20639;SDS011;10479;53.524;9.846;2023-06-10T09:51:12;9.02;;;3.20;;
20639;SDS011;10479;53.524;9.846;2023-06-10T09:53:39;13.00;;;2.80;;
20639;SDS011;10479;53.524;9.846;2023-06-10T09:56:05;11.77;;;3.30;;
20639;SDS011;10479;53.524;9.846;2023-06-10T09:58:35;11.02;;;2.67;;
20639;SDS011;10479;53.524;9.846;2023-06-10T10:01:04;11.85;;;3.30;;
20639;SDS011;10479;53.524;9.846;2023-06-10T10:03:49;8.32;;;3.33;;
20639;SDS011;10479;53.524;9.846;2023-06-10T10:06:15;9.45;;;3.20;;
20639;SDS011;10479;53.524;9.846;2023-06-10T10:08:42;8.60;;;3.00;;
20639;SDS011;10479;53.524;9.846;2023-06-10T10:11:08;9.02;;;3.22;;
20639;SDS011;10479;53.524;9.846;2023-06-10T10:13:35;7.13;;;3.33;;
20639;SDS011;10479;53.524;9.846;2023-06-10T10:16:04;8.68;;;2.90;;
20639;SDS011;10479;53.524;9.846;2023-06-10T10:21:00;7.47;;;3.13;;
20639;SDS011;10479;53.524;9.846;2023-06-10T10:23:29;7.95;;;3.10;;
20639;SDS011;10479;53.524;9.846;2023-06-10T10:25:57;11.00;;;3.30;;
20639;SDS011;10479;53.524;9.846;2023-06-10T10:28:25;10.98;;;2.95;;
20639;SDS011;10479;53.524;9.846;2023-06-10T10:31:01;9.07;;;3.08;;
20639;SDS011;10479;53.524;9.846;2023-06-10T10:33:45;9.27;;;2.72;;
20639;SDS011;10479;53.524;9.846;2023-06-10T10:36:17;7.68;;;3.08;;
20639;SDS011;10479;53.524;9.846;2023-06-10T10:38:44;10.15;;;3.25;;
20639;SDS011;10479;53.524;9.846;2023-06-10T10:41:10;8.70;;;3.63;;
20639;SDS011;10479;53.524;9.846;2023-06-10T10:43:36;10.02;;;3.58;;
20639;SDS011;10479;53.524;9.846;2023-06-10T10:46:03;9.95;;;3.33;;
20639;SDS011;10479;53.524;9.846;2023-06-10T10:48:35;13.52;;;3.85;;
20639;SDS011;10479;53.524;9.846;2023-06-10T10:51:02;9.13;;;3.45;;
20639;SDS011;10479;53.524;9.846;2023-06-10T10:53:28;8.63;;;3.33;;
20639;SDS011;10479;53.524;9.846;2023-06-10T10:56:13;8.57;;;3.13;;
20639;SDS011;10479;53.524;9.846;2023-06-10T10:58:40;9.32;;;3.13;;
20639;SDS011;10479;53.524;9.846;2023-06-10T11:01:12;8.93;;;2.92;;
20639;SDS011;10479;53.524;9.846;2023-06-10T11:03:48;11.35;;;3.28;;
20639;SDS011;10479;53.524;9.846;2023-06-10T11:06:14;9.02;;;3.03;;
20639;SDS011;10479;53.524;9.846;2023-06-10T11:11:20;9.90;;;3.42;;
20639;SDS011;10479;53.524;9.846;2023-06-10T11:13:57;8.70;;;3.38;;
20639;SDS011;10479;53.524;9.846;2023-06-10T11:16:27;13.98;;;3.10;;
20639;SDS011;10479;53.524;9.846;2023-06-10T11:18:54;8.02;;;3.03;;
20639;SDS011;10479;53.524;9.846;2023-06-10T11:21:20;12.07;;;3.67;;
20639;SDS011;10479;53.524;9.846;2023-06-10T11:23:57;8.23;;;3.20;;
20639;SDS011;10479;53.524;9.846;2023-06-10T11:31:23;10.65;;;3.70;;
20639;SDS011;10479;53.524;9.846;2023-06-10T11:33:52;11.82;;;3.58;;
20639;SDS011;10479;53.524;9.846;2023-06-10T11:36:23;10.05;;;3.67;;
20639;SDS011;10479;53.524;9.846;2023-06-10T11:38:50;9.93;;;3.20;;
20639;SDS011;10479;53.524;9.846;2023-06-10T11:41:25;12.40;;;3.72;;
20639;SDS011;10479;53.524;9.846;2023-06-10T11:43:56;8.07;;;3.35;;
20639;SDS011;10479;53.524;9.846;2023-06-10T11:46:27;6.78;;;3.47;;
20639;SDS011;10479;53.524;9.846;2023-06-10T11:48:54;10.43;;;3.35;;
20639;SDS011;10479;53.524;9.846;2023-06-10T11:51:25;8.52;;;3.35;;
20639;SDS011;10479;53.524;9.846;2023-06-10T11:53:53;8.67;;;3.27;;
20639;SDS011;10479;53.524;9.846;2023-06-10T11:56:20;9.88;;;3.85;;
20639;SDS011;10479;53.524;9.846;2023-06-10T11:58:57;9.38;;;3.53;;
20639;SDS011;10479;53.524;9.846;2023-06-10T12:01:33;10.63;;;3.47;;
20639;SDS011;10479;53.524;9.846;2023-06-10T12:04:07;12.18;;;3.55;;
20639;SDS011;10479;53.524;9.846;2023-06-10T12:06:52;8.82;;;3.75;;
20639;SDS011;10479;53.524;9.846;2023-06-10T12:09:19;9.85;;;4.10;;
20639;SDS011;10479;53.524;9.846;2023-06-10T12:11:58;9.30;;;4.22;;
20639;SDS011;10479;53.524;9.846;2023-06-10T12:17:12;9.15;;;3.63;;
20639;SDS011;10479;53.524;9.846;2023-06-10T12:19:38;13.63;;;4.07;;
20639;SDS011;10479;53.524;9.846;2023-06-10T12:22:05;9.48;;;3.83;;
20639;SDS011;10479;53.524;9.846;2023-06-10T12:24:31;16.65;;;3.97;;
20639;SDS011;10479;53.524;9.846;2023-06-10T12:27:00;9.45;;;4.63;;
20639;SDS011;10479;53.524;9.846;2023-06-10T12:29:26;12.23;;;4.18;;
20639;SDS011;10479;53.524;9.846;2023-06-10T12:32:00;9.85;;;4.43;;
20639;SDS011;10479;53.524;9.846;2023-06-10T12:34:34;10.63;;;4.68;;
20639;SDS011;10479;53.524;9.846;2023-06-10T12:37:05;13.90;;;4.57;;
20639;SDS011;10479;53.524;9.846;2023-06-10T12:39:33;15.70;;;5.40;;
20639;SDS011;10479;53.524;9.846;2023-06-10T12:41:59;13.23;;;4.57;;
20639;SDS011;10479;53.524;9.846;2023-06-10T12:44:29;10.20;;;4.28;;
20639;SDS011;10479;53.524;9.846;2023-06-10T12:46:58;14.77;;;4.63;;
20639;SDS011;10479;53.524;9.846;2023-06-10T12:49:25;10.25;;;4.38;;
20639;SDS011;10479;53.524;9.846;2023-06-10T12:51:51;14.32;;;4.65;;
20639;SDS011;10479;53.524;9.846;2023-06-10T12:54:18;10.73;;;4.18;;
20639;SDS011;10479;53.524;9.846;2023-06-10T12:56:44;11.68;;;4.63;;
20639;SDS011;10479;53.524;9.846;2023-06-10T12:59:10;11.93;;;4.78;;
20639;SDS011;10479;53.524;9.846;2023-06-10T13:01:37;10.25;;;4.55;;
20639;SDS011;10479;53.524;9.846;2023-06-10T13:04:05;10.25;;;4.50;;
20639;SDS011;10479;53.524;9.846;2023-06-10T13:06:32;12.00;;;4.40;;
20639;SDS011;10479;53.524;9.846;2023-06-10T13:09:02;6.43;;;3.90;;
20639;SDS011;10479;53.524;9.846;2023-06-10T13:11:28;9.55;;;4.15;;
20639;SDS011;10479;53.524;9.846;2023-06-10T13:13:53;7.93;;;4.22;;
20639;SDS011;10479;53.524;9.846;2023-06-10T13:16:20;12.77;;;4.50;;
20639;SDS011;10479;53.524;9.846;2023-06-10T13:18:47;12.43;;;4.80;;
20639;SDS011;10479;53.524;9.846;2023-06-10T13:21:13;8.90;;;4.28;;
20639;SDS011;10479;53.524;9.846;2023-06-10T13:23:38;11.65;;;4.43;;
20639;SDS011;10479;53.524;9.846;2023-06-10T13:26:06;8.70;;;4.45;;
20639;SDS011;10479;53.524;9.846;2023-06-10T13:28:33;8.13;;;4.70;;
20639;SDS011;10479;53.524;9.846;2023-06-10T13:31:00;10.38;;;4.20;;
20639;SDS011;10479;53.524;9.846;2023-06-10T13:33:26;9.57;;;4.13;;
20639;SDS011;10479;53.524;9.846;2023-06-10T13:35:54;7.72;;;4.10;;
20639;SDS011;10479;53.524;9.846;2023-06-10T13:38:20;10.40;;;3.95;;
20639;SDS011;10479;53.524;9.846;2023-06-10T13:40:47;10.40;;;4.30;;
20639;SDS011;10479;53.524;9.846;2023-06-10T13:43:13;9.82;;;4.47;;
20639;SDS011;10479;53.524;9.846;2023-06-10T13:45:40;11.48;;;4.25;;
20639;SDS011;10479;53.524;9.846;2023-06-10T13:48:06;9.38;;;4.15;;
20639;SDS011;10479;53.524;9.846;2023-06-10T13:50:33;10.35;;;4.22;;
20639;SDS011;10479;53.524;9.846;2023-06-10T13:52:59;10.68;;;4.40;;
20639;SDS011;10479;53.524;9.846;2023-06-10T13:55:25;11.70;;;4.63;;
20639;SDS011;10479;53.524;9.846;2023-06-10T13:57:56;8.38;;;4.20;;
20639;SDS011;10479;53.524;9.846;2023-06-10T14:00:27;12.10;;;4.20;;
20639;SDS011;10479;53.524;9.846;2023-06-10T14:02:55;11.05;;;4.63;;
20639;SDS011;10479;53.524;9.846;2023-06-10T14:05:21;10.57;;;5.07;;
20639;SDS011;10479;53.524;9.846;2023-06-10T14:07:47;9.02;;;4.05;;
20639;SDS011;10479;53.524;9.846;2023-06-10T14:10:14;10.15;;;4.10;;
20639;SDS011;10479;53.524;9.846;2023-06-10T14:12:41;9.38;;;4.07;;
20639;SDS011;10479;53.524;9.846;2023-06-10T14:15:11;9.18;;;4.07;;
20639;SDS011;10479;53.524;9.846;2023-06-10T14:17:36;8.57;;;3.58;;
20639;SDS011;10479;53.524;9.846;2023-06-10T14:20:02;10.60;;;3.60;;
20639;SDS011;10479;53.524;9.846;2023-06-10T14:22:29;9.63;;;3.67;;
20639;SDS011;10479;53.524;9.846;2023-06-10T14:24:55;10.18;;;3.90;;
20639;SDS011;10479;53.524;9.846;2023-06-10T14:27:20;11.90;;;3.42;;
20639;SDS011;10479;53.524;9.846;2023-06-10T14:29:46;10.30;;;3.28;;
20639;SDS011;10479;53.524;9.846;2023-06-10T14:32:11;7.97;;;3.63;;
20639;SDS011;10479;53.524;9.846;2023-06-10T14:34:37;10.25;;;2.97;;
20639;SDS011;10479;53.524;9.846;2023-06-10T14:37:04;11.30;;;3.55;;
20639;SDS011;10479;53.524;9.846;2023-06-10T14:39:32;11.38;;;3.90;;
20639;SDS011;10479;53.524;9.846;2023-06-10T14:41:57;9.00;;;3.20;;
20639;SDS011;10479;53.524;9.846;2023-06-10T14:44:23;9.65;;;3.50;;
20639;SDS011;10479;53.524;9.846;2023-06-10T14:46:48;12.32;;;4.13;;
20639;SDS011;10479;53.524;9.846;2023-06-10T14:49:14;11.85;;;3.92;;
20639;SDS011;10479;53.524;9.846;2023-06-10T14:51:39;10.32;;;3.80;;
20639;SDS011;10479;53.524;9.846;2023-06-10T14:54:05;12.45;;;3.70;;
20639;SDS011;10479;53.524;9.846;2023-06-10T14:56:30;6.75;;;3.40;;
20639;SDS011;10479;53.524;9.846;2023-06-10T14:58:56;11.13;;;3.33;;
20639;SDS011;10479;53.524;9.846;2023-06-10T15:01:21;10.48;;;3.40;;
20639;SDS011;10479;53.524;9.846;2023-06-10T15:03:47;12.00;;;3.45;;
20639;SDS011;10479;53.524;9.846;2023-06-10T15:06:13;11.60;;;3.92;;
20639;SDS011;10479;53.524;9.846;2023-06-10T15:08:38;11.07;;;3.35;;